Terminal Aerodrome Forecast
Issued by NWS Lake Charles, LA

Home | Current Version | Previous Version | Text Only | Print | Product List | Glossary On
Versions: 1 2 3 4 5 6 7 8 9 10 11 12 13 14 15 16 17 18 19 20 21 22 23 24 25 26 27 28
496
FTUS44 KLCH 202339
TAFARA
TAF
KARA 202339Z 2100/2124 29012KT 5SM SHRA BR VCTS OVC025CB
      TEMPO 2100/2102 VRB15G25KT 2SM TSRA OVC015CB
     FM210400 27006KT 4SM -SHRA BR OVC035
     FM211000 VRB04KT 3SM -SHRA BR OVC015
     FM211200 VRB03KT 2SM BR VCSH OVC007
     FM211600 VRB05KT P6SM VCSH OVC025
     FM212000 27008KT P6SM BKN050=

USA.gov is the U.S. government's official web portal to all federal, state and local government web resources and services.